createdAt,value
2024-04-13T00:02:24.849Z,3.67
2024-04-13T00:04:57.560Z,3.90
2024-04-13T00:07:32.999Z,4.65
2024-04-13T00:10:06.068Z,3.90
2024-04-13T00:12:39.348Z,3.70
2024-04-13T00:15:11.816Z,3.83
2024-04-13T00:17:44.852Z,4.05
2024-04-13T00:20:17.740Z,3.90
2024-04-13T00:22:51.884Z,4.22
2024-04-13T00:25:25.146Z,3.90
2024-04-13T00:27:58.133Z,4.40
2024-04-13T00:30:30.634Z,4.30
2024-04-13T00:33:11.205Z,4.70
2024-04-13T00:35:43.726Z,4.28
2024-04-13T00:38:17.272Z,3.60
2024-04-13T00:40:49.630Z,4.03
2024-04-13T00:43:22.035Z,3.60
2024-04-13T00:45:56.629Z,4.00
2024-04-13T00:48:32.361Z,4.10
2024-04-13T00:51:07.858Z,3.85
2024-04-13T00:53:42.951Z,4.10
2024-04-13T00:56:15.807Z,3.88
2024-04-13T00:58:49.730Z,4.28
2024-04-13T01:01:22.452Z,3.72
2024-04-13T01:03:55.011Z,3.60
2024-04-13T01:06:31.071Z,3.97
2024-04-13T01:09:04.875Z,4.18
2024-04-13T01:11:41.256Z,3.63
2024-04-13T01:14:14.774Z,3.65
2024-04-13T01:16:47.441Z,3.92
2024-04-13T01:19:19.929Z,4.20
2024-04-13T01:21:52.767Z,3.65
2024-04-13T01:24:26.402Z,3.90
2024-04-13T01:26:59.082Z,4.18
2024-04-13T01:29:31.615Z,3.72
2024-04-13T01:32:04.190Z,3.63
2024-04-13T01:34:36.598Z,3.67
2024-04-13T01:37:09.071Z,3.67
2024-04-13T01:39:43.135Z,4.28
2024-04-13T01:42:16.368Z,4.15
2024-04-13T01:44:48.797Z,3.67
2024-04-13T01:47:21.560Z,3.95
2024-04-13T01:49:54.396Z,3.72
2024-04-13T01:52:28.765Z,4.50
2024-04-13T01:55:01.619Z,3.80
2024-04-13T01:57:37.208Z,3.92
2024-04-13T02:00:16.484Z,3.90
2024-04-13T02:02:49.024Z,3.90
2024-04-13T02:05:21.588Z,4.53
2024-04-13T02:07:56.242Z,3.58
2024-04-13T02:13:02.632Z,3.80
2024-04-13T02:15:36.715Z,4.28
2024-04-13T02:18:09.409Z,3.75
2024-04-13T02:20:46.227Z,3.90
2024-04-13T02:23:19.509Z,4.00
2024-04-13T02:25:51.993Z,4.05
2024-04-13T02:28:27.000Z,3.83
2024-04-13T02:30:59.396Z,4.63
2024-04-13T02:33:33.651Z,4.00
2024-04-13T02:36:06.938Z,3.97
2024-04-13T02:38:39.671Z,3.95
2024-04-13T02:41:12.136Z,3.95
2024-04-13T02:43:45.195Z,3.80
2024-04-13T02:46:18.061Z,3.92
2024-04-13T02:48:50.692Z,3.90
2024-04-13T02:51:23.167Z,4.18
2024-04-13T02:53:55.562Z,3.75
2024-04-13T02:56:29.666Z,4.20
2024-04-13T02:59:02.070Z,3.88
2024-04-13T03:01:34.510Z,4.00
2024-04-13T03:04:12.579Z,3.72
2024-04-13T03:06:47.783Z,4.20
2024-04-13T03:09:21.691Z,4.00
2024-04-13T03:11:54.146Z,4.55
2024-04-13T03:14:29.635Z,3.92
2024-04-13T03:17:02.095Z,4.57
2024-04-13T03:19:34.557Z,4.20
2024-04-13T03:22:09.709Z,4.30
2024-04-13T03:24:42.483Z,4.43
2024-04-13T03:27:14.976Z,4.47
2024-04-13T03:29:51.356Z,3.97
2024-04-13T03:32:23.797Z,3.80
2024-04-13T03:34:56.306Z,4.18
2024-04-13T03:37:30.873Z,3.95
2024-04-13T03:40:03.343Z,4.38
2024-04-13T03:42:42.755Z,4.28
2024-04-13T03:45:18.417Z,4.85
2024-04-13T03:47:50.964Z,4.25
2024-04-13T03:50:23.843Z,4.13
2024-04-13T03:52:58.535Z,3.75
2024-04-13T03:55:30.943Z,3.55
2024-04-13T03:58:03.389Z,4.25
2024-04-13T04:00:36.400Z,4.47
2024-04-13T04:03:09.280Z,4.53
2024-04-13T04:05:43.342Z,4.20
2024-04-13T04:08:16.359Z,4.53
2024-04-13T04:10:49.213Z,4.10
2024-04-13T04:13:30.781Z,4.22
2024-04-13T04:16:04.717Z,4.53
2024-04-13T04:18:37.273Z,4.20
2024-04-13T04:21:09.816Z,4.28
2024-04-13T04:23:42.259Z,4.20
2024-04-13T04:26:14.698Z,4.10
2024-04-13T04:28:50.986Z,4.15
2024-04-13T04:31:23.402Z,3.75
2024-04-13T04:33:56.681Z,4.25
2024-04-13T04:36:29.836Z,3.78
2024-04-13T04:39:02.553Z,4.40
2024-04-13T04:41:34.951Z,4.40
2024-04-13T04:44:07.320Z,4.07
2024-04-13T04:46:44.877Z,4.47
2024-04-13T04:49:18.882Z,4.50
2024-04-13T04:51:51.318Z,4.60
2024-04-13T04:54:26.436Z,5.25
2024-04-13T04:56:59.904Z,4.40
2024-04-13T04:59:35.579Z,4.55
2024-04-13T05:02:08.047Z,5.13
2024-04-13T05:04:40.959Z,4.75
2024-04-13T05:07:13.375Z,6.05
2024-04-13T05:09:47.355Z,4.85
2024-04-13T05:12:19.832Z,4.68
2024-04-13T05:14:52.279Z,4.90
2024-04-13T05:17:24.705Z,4.45
2024-04-13T05:19:57.584Z,4.40
2024-04-13T05:22:30.261Z,4.40
2024-04-13T05:25:02.701Z,4.70
2024-04-13T05:27:35.112Z,4.50
2024-04-13T05:30:11.574Z,4.40
2024-04-13T05:32:44.730Z,4.22
2024-04-13T05:35:19.522Z,4.13
2024-04-13T05:37:55.610Z,4.30
2024-04-13T05:40:28.897Z,4.63
2024-04-13T05:43:04.140Z,4.13
2024-04-13T05:45:39.654Z,4.35
2024-04-13T05:48:12.194Z,4.10
2024-04-13T05:50:59.761Z,3.60
2024-04-13T05:53:33.056Z,4.32
2024-04-13T05:56:06.904Z,3.97
2024-04-13T05:58:39.355Z,4.25
2024-04-13T06:01:11.885Z,4.10
2024-04-13T06:03:44.529Z,4.53
2024-04-13T06:06:17.303Z,4.35
2024-04-13T06:08:50.673Z,4.28
2024-04-13T06:11:23.954Z,4.35
2024-04-13T06:13:56.452Z,3.80
2024-04-13T06:16:28.965Z,3.58
2024-04-13T06:19:03.469Z,3.85
2024-04-13T06:21:39.213Z,3.60
2024-04-13T06:24:12.065Z,4.20
2024-04-13T06:26:44.472Z,3.80
2024-04-13T06:29:19.858Z,3.78
2024-04-13T06:31:52.440Z,3.60
2024-04-13T06:34:25.248Z,4.07
2024-04-13T06:36:57.792Z,3.50
2024-04-13T06:39:31.426Z,3.70
2024-04-13T06:42:10.566Z,3.88
2024-04-13T06:44:43.018Z,3.40
2024-04-13T06:47:15.421Z,3.53
2024-04-13T06:49:48.253Z,3.90
2024-04-13T06:52:20.704Z,3.58
2024-04-13T06:54:53.144Z,3.40
2024-04-13T06:57:28.509Z,3.38
2024-04-13T07:00:00.877Z,3.40
2024-04-13T07:02:33.370Z,3.58
2024-04-13T07:05:08.531Z,3.45
2024-04-13T07:07:44.444Z,3.00
2024-04-13T07:10:16.939Z,3.13
2024-04-13T07:12:49.491Z,3.00
2024-04-13T07:15:22.014Z,3.05
2024-04-13T07:17:54.503Z,3.08
2024-04-13T07:20:27.253Z,3.33
2024-04-13T07:23:00.615Z,3.22
2024-04-13T07:25:37.038Z,3.10
2024-04-13T07:28:09.481Z,2.63
2024-04-13T07:30:45.158Z,2.53
2024-04-13T07:33:18.949Z,3.15
2024-04-13T07:35:55.097Z,2.58
2024-04-13T07:38:31.823Z,3.22
2024-04-13T07:41:04.396Z,3.40
2024-04-13T07:43:36.814Z,2.67
2024-04-13T07:46:09.239Z,2.70
2024-04-13T07:48:41.726Z,2.92
2024-04-13T07:51:14.186Z,2.70
2024-04-13T07:53:47.986Z,2.20
2024-04-13T07:56:20.903Z,3.25
2024-04-13T07:58:53.375Z,2.70
2024-04-13T08:01:26.033Z,2.83
2024-04-13T08:03:59.109Z,2.80
2024-04-13T08:06:31.676Z,2.90
2024-04-13T08:09:04.788Z,3.15
2024-04-13T08:11:38.015Z,3.22
2024-04-13T08:14:12.866Z,2.85
2024-04-13T08:16:47.538Z,2.88
2024-04-13T08:19:19.971Z,2.67
2024-04-13T08:21:53.130Z,3.10
2024-04-13T08:24:25.655Z,2.75
2024-04-13T08:26:58.004Z,2.83
2024-04-13T08:29:30.427Z,2.60
2024-04-13T08:32:03.069Z,2.60
2024-04-13T08:34:36.502Z,3.03
2024-04-13T08:37:09.746Z,2.97
2024-04-13T08:39:46.233Z,2.97
2024-04-13T08:42:34.251Z,3.63
2024-04-13T08:45:10.997Z,3.40
2024-04-13T08:47:44.183Z,2.85
2024-04-13T08:50:17.838Z,2.80
2024-04-13T08:52:53.839Z,2.67
2024-04-13T08:55:27.262Z,2.72
2024-04-13T08:58:00.778Z,2.70
2024-04-13T09:00:33.577Z,3.50
2024-04-13T09:03:07.424Z,2.92
2024-04-13T09:05:43.058Z,3.30
2024-04-13T09:08:16.595Z,2.97
2024-04-13T09:10:55.609Z,4.47
2024-04-13T09:13:28.085Z,4.38
2024-04-13T09:16:00.984Z,4.78
2024-04-13T09:18:34.335Z,4.55
2024-04-13T09:21:08.661Z,4.90
2024-04-13T09:23:43.252Z,5.05
2024-04-13T09:26:15.715Z,4.80
2024-04-13T09:28:48.759Z,4.97
2024-04-13T09:31:24.090Z,5.78
2024-04-13T09:33:56.624Z,4.68
2024-04-13T09:36:29.087Z,5.22
2024-04-13T09:39:01.562Z,4.60
2024-04-13T09:44:13.170Z,4.40
2024-04-13T09:46:45.578Z,4.28
2024-04-13T09:49:18.224Z,3.85
2024-04-13T09:51:52.059Z,3.92
2024-04-13T09:54:28.724Z,3.42
2024-04-13T09:57:01.617Z,3.70
2024-04-13T09:59:36.891Z,3.72
2024-04-13T10:02:11.478Z,4.10
2024-04-13T10:04:43.957Z,3.78
2024-04-13T10:07:16.966Z,3.85
2024-04-13T10:09:56.787Z,3.80
2024-04-13T10:12:35.018Z,3.53
2024-04-13T10:15:10.238Z,3.30
2024-04-13T10:17:45.195Z,3.78
2024-04-13T10:20:17.805Z,3.42
2024-04-13T10:22:55.148Z,3.10
2024-04-13T10:25:31.318Z,3.60
2024-04-13T10:28:21.834Z,2.90
2024-04-13T10:30:57.768Z,2.92
2024-04-13T10:33:34.144Z,3.13
2024-04-13T10:36:09.279Z,3.17
2024-04-13T10:38:41.985Z,2.97
2024-04-13T10:41:37.654Z,3.65
2024-04-13T10:44:10.748Z,3.10
2024-04-13T10:46:44.526Z,2.90
2024-04-13T10:49:19.449Z,2.83
2024-04-13T10:51:52.152Z,2.50
2024-04-13T10:54:24.921Z,2.75
2024-04-13T10:57:09.569Z,2.42
2024-04-13T10:59:45.735Z,3.13
2024-04-13T11:02:18.241Z,2.35
2024-04-13T11:04:50.884Z,2.50
2024-04-13T11:07:23.595Z,1.92
2024-04-13T11:09:56.123Z,2.30
2024-04-13T11:12:28.604Z,2.40
2024-04-13T11:15:01.099Z,2.35
2024-04-13T11:17:33.696Z,2.30
2024-04-13T11:20:08.539Z,2.05
2024-04-13T11:25:18.699Z,2.40
2024-04-13T11:27:56.738Z,2.30
2024-04-13T11:30:29.586Z,2.40
2024-04-13T11:33:03.193Z,2.33
2024-04-13T11:35:36.528Z,2.10
2024-04-13T11:38:11.926Z,1.98
2024-04-13T11:40:44.397Z,2.15
2024-04-13T11:43:17.415Z,2.10
2024-04-13T11:45:51.140Z,2.25
2024-04-13T11:48:23.942Z,2.05
2024-04-13T11:50:57.707Z,2.03
2024-04-13T11:53:30.127Z,2.40
2024-04-13T11:56:08.450Z,1.90
2024-04-13T11:58:51.103Z,2.72
2024-04-13T12:01:23.697Z,1.88
2024-04-13T12:03:56.175Z,2.00
2024-04-13T12:06:31.784Z,2.08
2024-04-13T12:09:04.237Z,1.90
2024-04-13T12:11:38.688Z,2.63
2024-04-13T12:14:11.976Z,2.03
2024-04-13T12:16:46.938Z,2.13
2024-04-13T12:19:19.403Z,1.70
2024-04-13T12:21:51.895Z,1.85
2024-04-13T12:24:25.671Z,2.08
2024-04-13T12:26:58.482Z,1.85
2024-04-13T12:29:31.385Z,1.70
2024-04-13T12:32:04.756Z,1.95
2024-04-13T12:34:37.546Z,1.73
2024-04-13T12:37:10.083Z,1.95
2024-04-13T12:39:44.295Z,1.92
2024-04-13T12:44:49.075Z,1.90
2024-04-13T12:47:22.574Z,1.95
2024-04-13T12:49:55.777Z,2.10
2024-04-13T12:52:28.154Z,2.15
2024-04-13T12:55:00.618Z,1.90
2024-04-13T12:57:33.044Z,2.05
2024-04-13T13:00:06.314Z,1.60
2024-04-13T13:02:42.022Z,1.80
2024-04-13T13:05:15.012Z,2.10
2024-04-13T13:07:47.491Z,2.05
2024-04-13T13:10:22.594Z,2.10
2024-04-13T13:12:55.144Z,1.90
2024-04-13T13:15:28.044Z,2.28
2024-04-13T13:18:00.803Z,2.00
2024-04-13T13:20:33.423Z,2.40
2024-04-13T13:23:12.058Z,1.88
2024-04-13T13:25:44.841Z,1.75
2024-04-13T13:28:17.319Z,2.63
2024-04-13T13:30:49.823Z,1.77
2024-04-13T13:33:22.347Z,2.03
2024-04-13T13:35:54.874Z,2.08
2024-04-13T13:38:27.385Z,2.42
2024-04-13T13:41:02.863Z,1.83
2024-04-13T13:43:35.283Z,2.00
2024-04-13T13:46:07.790Z,2.60
2024-04-13T13:48:40.417Z,2.20
2024-04-13T13:51:13.542Z,2.20
2024-04-13T13:53:46.839Z,2.38
2024-04-13T13:56:19.258Z,2.20
2024-04-13T13:58:52.521Z,2.40
2024-04-13T14:01:24.983Z,2.60
2024-04-13T14:03:57.506Z,2.00
2024-04-13T14:06:30.032Z,2.13
2024-04-13T14:09:02.798Z,2.25
2024-04-13T14:11:35.242Z,2.28
2024-04-13T14:14:08.025Z,2.50
2024-04-13T14:16:40.491Z,2.20
2024-04-13T14:19:12.934Z,2.28
2024-04-13T14:21:45.560Z,2.00
2024-04-13T14:24:18.116Z,2.08
2024-04-13T14:26:50.515Z,2.05
2024-04-13T14:29:25.404Z,2.05
2024-04-13T14:31:57.861Z,2.40
2024-04-13T14:34:30.289Z,2.35
2024-04-13T14:37:02.763Z,2.38
2024-04-13T14:39:35.299Z,2.20
2024-04-13T14:42:08.621Z,2.20
2024-04-13T14:44:41.440Z,1.90
2024-04-13T14:47:14.249Z,1.83
2024-04-13T14:49:46.794Z,1.80
2024-04-13T14:52:21.987Z,2.08
2024-04-13T14:54:54.385Z,1.92
2024-04-13T14:57:27.442Z,1.80
2024-04-13T15:00:00.044Z,2.13
2024-04-13T15:02:34.220Z,1.73
2024-04-13T15:05:12.874Z,2.00
2024-04-13T15:07:45.326Z,1.98
2024-04-13T15:10:17.921Z,2.08
2024-04-13T15:12:50.663Z,1.73
2024-04-13T15:15:23.602Z,1.67
2024-04-13T15:17:56.357Z,1.88
2024-04-13T15:20:28.938Z,2.25
2024-04-13T15:23:03.949Z,1.70
2024-04-13T15:25:36.833Z,1.92
2024-04-13T15:28:09.662Z,1.88
2024-04-13T15:30:42.279Z,1.70
2024-04-13T15:33:14.747Z,1.60
2024-04-13T15:35:47.184Z,1.92
2024-04-13T15:38:22.014Z,1.55
2024-04-13T15:40:56.461Z,1.70
2024-04-13T15:43:28.905Z,1.60
2024-04-13T15:46:01.431Z,1.83
2024-04-13T15:48:34.824Z,1.80
2024-04-13T15:51:07.288Z,1.75
2024-04-13T15:53:39.986Z,2.08
2024-04-13T15:56:15.422Z,2.00
2024-04-13T15:58:47.817Z,2.28
2024-04-13T16:01:20.279Z,1.70
2024-04-13T16:03:56.512Z,2.27
2024-04-13T16:06:29.297Z,1.70
2024-04-13T16:09:01.748Z,1.80
2024-04-13T16:11:34.376Z,2.88
2024-04-13T16:14:06.784Z,2.38
2024-04-13T16:16:39.299Z,1.80
2024-04-13T16:19:13.189Z,2.10
2024-04-13T16:21:45.867Z,1.60
2024-04-13T16:24:19.214Z,2.03
2024-04-13T16:26:51.755Z,2.22
2024-04-13T16:29:24.341Z,2.03
2024-04-13T16:31:56.953Z,1.90
2024-04-13T16:34:29.416Z,1.70
2024-04-13T16:37:04.760Z,1.90
2024-04-13T16:39:37.230Z,1.80
2024-04-13T16:42:11.337Z,2.97
2024-04-13T16:44:43.773Z,1.88
2024-04-13T16:47:17.438Z,2.85
2024-04-13T16:49:52.763Z,2.50
2024-04-13T16:52:26.309Z,2.22
2024-04-13T16:54:58.773Z,2.40
2024-04-13T16:57:32.072Z,2.05
2024-04-13T17:00:04.957Z,2.35
2024-04-13T17:02:39.266Z,2.00
2024-04-13T17:05:11.802Z,1.88
2024-04-13T17:07:44.692Z,2.10
2024-04-13T17:10:19.535Z,2.30
2024-04-13T17:12:52.203Z,2.30
2024-04-13T17:15:27.827Z,2.22
2024-04-13T17:18:00.564Z,2.35
2024-04-13T17:20:33.157Z,2.20
2024-04-13T17:23:07.972Z,2.03
2024-04-13T17:25:40.415Z,2.30
2024-04-13T17:28:14.912Z,2.28
2024-04-13T17:33:20.444Z,2.38
2024-04-13T17:35:52.991Z,2.80
2024-04-13T17:38:28.594Z,2.70
2024-04-13T17:41:01.894Z,10.95
2024-04-13T17:43:34.440Z,13.20
2024-04-13T17:46:07.284Z,5.45
2024-04-13T17:48:39.885Z,3.10
2024-04-13T17:51:13.197Z,2.72
2024-04-13T17:53:45.630Z,2.92
2024-04-13T17:56:18.193Z,2.78
2024-04-13T17:58:51.610Z,2.83
2024-04-13T18:01:24.225Z,3.35
2024-04-13T18:03:56.821Z,3.70
2024-04-13T18:06:29.311Z,3.20
2024-04-13T18:09:01.815Z,3.40
2024-04-13T18:11:34.307Z,3.80
2024-04-13T18:14:06.734Z,3.50
2024-04-13T18:16:39.096Z,3.50
2024-04-13T18:19:12.578Z,3.53
2024-04-13T18:21:47.091Z,4.05
2024-04-13T18:24:20.346Z,4.28
2024-04-13T18:26:56.499Z,4.05
2024-04-13T18:29:29.743Z,3.75
2024-04-13T18:32:02.125Z,3.72
2024-04-13T18:34:38.069Z,3.63
2024-04-13T18:37:10.550Z,3.67
2024-04-13T18:39:43.475Z,3.58
2024-04-13T18:42:16.902Z,3.40
2024-04-13T18:44:49.382Z,3.63
2024-04-13T18:47:21.936Z,3.47
2024-04-13T18:49:55.810Z,3.85
2024-04-13T18:52:28.295Z,4.20
2024-04-13T18:55:00.742Z,4.28
2024-04-13T18:57:33.756Z,3.97
2024-04-13T19:00:06.820Z,4.53
2024-04-13T19:02:39.271Z,4.05
2024-04-13T19:05:11.668Z,3.78
2024-04-13T19:07:44.166Z,3.97
2024-04-13T19:10:16.644Z,4.20
2024-04-13T19:12:50.121Z,3.78
2024-04-13T19:15:22.554Z,3.97
2024-04-13T19:17:55.368Z,3.88
2024-04-13T19:20:27.815Z,3.45
2024-04-13T19:23:02.644Z,3.95
2024-04-13T19:25:35.325Z,4.00
2024-04-13T19:28:08.170Z,3.85
2024-04-13T19:30:40.618Z,3.67
2024-04-13T19:33:13.974Z,3.90
2024-04-13T19:35:47.018Z,4.10
2024-04-13T19:38:19.505Z,3.90
2024-04-13T19:40:52.662Z,4.22
2024-04-13T19:43:25.231Z,3.88
2024-04-13T19:45:58.911Z,3.70
2024-04-13T19:48:31.639Z,3.72
2024-04-13T19:51:04.347Z,4.03
2024-04-13T19:53:36.988Z,3.85
2024-04-13T19:56:11.446Z,4.32
2024-04-13T20:01:17.250Z,3.97
2024-04-13T20:03:50.023Z,4.60
2024-04-13T20:06:26.461Z,4.57
2024-04-13T20:09:00.993Z,4.00
2024-04-13T20:11:33.474Z,4.22
2024-04-13T20:14:05.912Z,4.15
2024-04-13T20:16:57.060Z,4.60
2024-04-13T20:19:29.796Z,4.82
2024-04-13T20:22:02.296Z,4.22
2024-04-13T20:24:36.594Z,4.57
2024-04-13T20:27:10.629Z,4.65
2024-04-13T20:29:45.899Z,4.40
2024-04-13T20:32:19.473Z,4.93
2024-04-13T20:34:53.915Z,4.87
2024-04-13T20:39:59.076Z,4.72
2024-04-13T20:42:31.451Z,4.45
2024-04-13T20:45:06.080Z,4.93
2024-04-13T20:47:38.506Z,4.70
2024-04-13T20:50:14.277Z,4.70
2024-04-13T20:52:56.659Z,4.75
2024-04-13T20:55:33.785Z,4.72
2024-04-13T20:58:07.034Z,5.20
2024-04-13T21:00:39.876Z,4.65
2024-04-13T21:03:15.089Z,4.75
2024-04-13T21:05:47.477Z,5.55
2024-04-13T21:08:19.959Z,5.63
2024-04-13T21:10:52.298Z,5.20
2024-04-13T21:13:24.891Z,4.72
2024-04-13T21:15:57.353Z,4.90
2024-04-13T21:18:29.857Z,5.00
2024-04-13T21:21:03.362Z,4.78
2024-04-13T21:23:35.866Z,4.75
2024-04-13T21:26:08.904Z,4.80
2024-04-13T21:28:41.596Z,4.88
2024-04-13T21:31:14.007Z,4.80
2024-04-13T21:33:46.562Z,4.78
2024-04-13T21:36:20.049Z,4.90
2024-04-13T21:38:53.194Z,4.53
2024-04-13T21:41:25.625Z,4.80
2024-04-13T21:43:58.409Z,4.28
2024-04-13T21:46:31.018Z,4.55
2024-04-13T21:49:09.221Z,4.15
2024-04-13T21:51:42.557Z,4.78
2024-04-13T21:54:15.022Z,4.43
2024-04-13T21:56:50.288Z,5.20
2024-04-13T21:59:22.756Z,4.60
2024-04-13T22:01:55.228Z,5.15
2024-04-13T22:04:27.758Z,5.13
2024-04-13T22:07:00.907Z,4.70
2024-04-13T22:09:34.323Z,7.07
2024-04-13T22:12:08.134Z,5.20
2024-04-13T22:14:42.714Z,5.28
2024-04-13T22:17:15.098Z,4.75
2024-04-13T22:19:47.556Z,5.10
2024-04-13T22:22:22.824Z,5.03
2024-04-13T22:24:55.458Z,5.28
2024-04-13T22:27:28.760Z,5.10
2024-04-13T22:30:01.290Z,4.72
2024-04-13T22:32:35.119Z,5.03
2024-04-13T22:35:07.740Z,4.78
2024-04-13T22:37:41.497Z,5.18
2024-04-13T22:40:13.883Z,4.30
2024-04-13T22:42:46.277Z,4.40
2024-04-13T22:45:19.665Z,4.57
2024-04-13T22:47:52.115Z,4.55
2024-04-13T22:50:24.534Z,5.45
2024-04-13T22:52:57.871Z,3.83
2024-04-13T22:55:30.260Z,3.92
2024-04-13T22:58:02.687Z,3.90
2024-04-13T23:00:41.189Z,4.20
2024-04-13T23:03:14.823Z,3.75
2024-04-13T23:06:00.571Z,4.53
2024-04-13T23:08:33.111Z,3.67
2024-04-13T23:11:05.772Z,3.83
2024-04-13T23:13:38.341Z,3.90
2024-04-13T23:16:10.764Z,3.30
2024-04-13T23:18:44.406Z,3.72
2024-04-13T23:21:20.049Z,3.50
2024-04-13T23:23:52.436Z,3.15
2024-04-13T23:26:28.695Z,3.13
2024-04-13T23:29:01.492Z,3.58
2024-04-13T23:31:42.111Z,3.67
2024-04-13T23:34:15.207Z,3.58
2024-04-13T23:36:47.582Z,3.60
2024-04-13T23:39:20.063Z,3.40
2024-04-13T23:41:52.449Z,3.40
2024-04-13T23:44:31.226Z,3.22
2024-04-13T23:47:06.438Z,3.45
2024-04-13T23:49:39.652Z,3.33
2024-04-13T23:52:12.141Z,3.30
2024-04-13T23:54:47.384Z,3.42
2024-04-13T23:57:20.019Z,3.70
2024-04-13T23:59:52.394Z,3.42
